Terminal Aerodrome Forecast
Issued by NWS Blacksburg, VA

Home | Current Version | Previous Version | Text Only | Print | Product List | Glossary On
Versions: 1 2 3 4 5 6 7 8 9 10 11 12 13 14 15 16 17 18 19 20 21 22 23 24 25 26 27 28
000
FTUS41 KRNK 050539
TAFLYH
TAF
KLYH 050539Z 0506/0606 VRB03KT P6SM BKN250
      TEMPO 0508/0512 3SM BR
     FM051400 26005KT P6SM SCT250
     FM051800 29006KT P6SM SCT060 SCT250
     FM060000 36004KT P6SM SCT060 BKN250=

USA.gov is the U.S. government's official web portal to all federal, state and local government web resources and services.